Home   Weather   Canada   Cambridge   Past weeks
Flag for Canada

Past Weather in Cambridge, Ontario, Canada — Yesterday and Last 2 Weeks

Currently: 57 °F. Fog. (Weather station: Waterloo Well, Canada). See more current weather

Past Weather in Cambridge — Graph

°F

Cambridge Temperature Yesterday

Maximum temperature yesterday: 75 °F (at 2:00 pm)
Minimum temperature yesterday: 46 °F (at 5:03 am)
Average temperature yesterday: 58 °F

High & Low Weather Summary for the Past Weeks

 TemperatureHumidityPressure
High84 °F (Jul 26, 3:00 pm)100% (Jul 22, 3:00 am)30.23 "Hg (Jul 22, 3:00 am)
Low46 °F (Jul 31, 3:00 am)37% (Jul 26, 3:00 pm)29.74 "Hg (Jul 29, 3:00 pm)
Average64 °F81%30.00 "Hg
* Reported Jul 20 8:00 am — Aug 4 8:00 am, Cambridge. Weather by CustomWeather, © 2021

Note: Actual official high and low records may vary slightly from our data, if they occured in-between our weather recording intervals... More about our weather records

Cambridge Weather History for the Previous 24 Hours

Scroll right to see more
 ConditionsComfort  
Time TempWeatherWind HumidityBarometerVisibility
8:00 am
Wed, Aug 4
57 °FFog.No wind100%30.14 "Hg6 mi
7:50 am57 °FFog.No wind94%30.15 "Hg6 mi
7:06 am52 °FFog.2 mph94%30.14 "Hg3 mi
6:40 am52 °FFog.No wind100%30.14 "Hg3 mi
6:21 am50 °FFog.2 mph100%30.14 "Hg1 mi
6:00 am50 °FFog.2 mph100%30.12 "Hg1 mi
5:06 am52 °FFog.2 mph94%30.13 "Hg1 mi
4:24 am52 °FFog.No wind100%30.12 "Hg1 mi
4:00 am50 °FFog.No wind100%30.10 "Hg1 mi
3:17 am52 °FFog.2 mph94%30.11 "Hg2 mi
2:51 am54 °FFog.No wind100%30.11 "Hg6 mi
2:39 am52 °FFog.2 mph94%30.11 "Hg1 mi
2:19 am54 °FFog.2 mph100%30.10 "Hg2 mi
2:00 am54 °FFog.2 mph100%30.09 "Hg5 mi
1:36 am55 °FClear.3 mph94%30.11 "Hg8 mi
1:25 am52 °FFog.2 mph100%30.11 "Hg2 mi
1:08 am55 °FFog.No wind94%30.10 "Hg5 mi
12:00 am57 °FClear.No wind100%30.10 "Hg9 mi
11:10 pm
Tue, Aug 3
59 °FClear.2 mph94%30.11 "Hg9 mi
10:00 pm64 °FClear.5 mph73%30.11 "Hg9 mi
9:00 pm68 °FPassing clouds.10 mph69%30.09 "Hg9 mi
7:00 pm73 °FOvercast.10 mph61%30.06 "Hg9 mi
6:00 pm75 °FMostly cloudy.5 mph47%30.06 "Hg9 mi
5:00 pm75 °FBroken clouds.6 mph47%30.06 "Hg9 mi
4:00 pm75 °FBroken clouds.5 mph44%30.07 "Hg9 mi
2:00 pm75 °FScattered clouds.3 mph47%30.09 "Hg9 mi
1:00 pm73 °FScattered clouds.8 mph50%30.10 "Hg9 mi
12:00 pm73 °FPartly sunny.8 mph53%30.11 "Hg9 mi
11:00 am72 °FScattered clouds.12 mph50%30.13 "Hg9 mi
10:00 am70 °FSunny.5 mph64%30.12 "Hg9 mi
9:00 am63 °FSunny.No wind83%30.12 "Hg9 mi
Weather by CustomWeather, © 2021

See weather overview